createdAt,value
2023-05-02T00:00:11.507Z,14.23
2023-05-02T00:02:39.674Z,14.23
2023-05-02T00:05:08.621Z,14.28
2023-05-02T00:07:37.396Z,14.25
2023-05-02T00:10:06.161Z,14.23
2023-05-02T00:12:34.618Z,14.27
2023-05-02T00:15:02.581Z,14.33
2023-05-02T00:17:32.424Z,14.36
2023-05-02T00:20:00.928Z,14.37
2023-05-02T00:22:31.077Z,14.36
2023-05-02T00:24:59.878Z,14.39
2023-05-02T00:27:27.795Z,14.28
2023-05-02T00:29:55.686Z,14.25
2023-05-02T00:32:23.680Z,14.29
2023-05-02T00:34:53.086Z,14.31
2023-05-02T00:37:21.371Z,14.24
2023-05-02T00:39:49.253Z,14.29
2023-05-02T00:42:17.124Z,14.37
2023-05-02T00:44:45.192Z,14.29
2023-05-02T00:47:13.024Z,14.29
2023-05-02T00:49:40.934Z,14.25
2023-05-02T00:52:10.620Z,14.32
2023-05-02T00:54:43.239Z,14.38
2023-05-02T00:57:11.132Z,14.44
2023-05-02T00:59:39.378Z,14.45
2023-05-02T01:02:21.599Z,14.40
2023-05-02T01:05:01.139Z,14.33
2023-05-02T01:07:44.802Z,14.37
2023-05-02T01:10:20.709Z,14.29
2023-05-02T01:12:59.702Z,14.27
2023-05-02T01:15:28.576Z,14.21
2023-05-02T01:17:57.985Z,14.30
2023-05-02T01:20:30.420Z,14.30
2023-05-02T01:23:08.474Z,14.14
2023-05-02T01:25:55.262Z,14.09
2023-05-02T01:28:32.433Z,13.97
2023-05-02T01:31:04.593Z,13.93
2023-05-02T01:33:34.130Z,13.95
2023-05-02T01:36:03.685Z,13.99
2023-05-02T01:38:33.205Z,14.08
2023-05-02T01:41:05.388Z,14.04
2023-05-02T01:43:35.808Z,13.96
2023-05-02T01:46:08.125Z,13.91
2023-05-02T01:48:38.038Z,13.89
2023-05-02T01:51:08.559Z,13.86
2023-05-02T01:53:37.550Z,13.85
2023-05-02T01:56:09.946Z,13.85
2023-05-02T01:58:39.111Z,13.81
2023-05-02T02:01:10.925Z,13.82
2023-05-02T02:03:39.105Z,13.75
2023-05-02T02:06:08.489Z,13.84
2023-05-02T02:08:36.981Z,13.84
2023-05-02T02:11:11.683Z,13.85
2023-05-02T02:13:44.772Z,13.89
2023-05-02T02:16:20.419Z,13.79
2023-05-02T02:18:49.106Z,13.77
2023-05-02T02:21:20.407Z,13.71
2023-05-02T02:23:49.913Z,13.65
2023-05-02T02:26:22.120Z,13.73
2023-05-02T02:28:50.171Z,13.57
2023-05-02T02:31:19.553Z,13.59
2023-05-02T02:33:47.958Z,13.42
2023-05-02T02:36:22.904Z,13.32
2023-05-02T02:39:01.007Z,13.34
2023-05-02T02:41:33.449Z,13.39
2023-05-02T02:44:21.550Z,13.35
2023-05-02T02:47:01.030Z,13.24
2023-05-02T02:49:35.160Z,13.05
2023-05-02T02:52:11.406Z,12.91
2023-05-02T02:54:46.701Z,12.79
2023-05-02T02:57:19.741Z,12.70
2023-05-02T03:00:08.668Z,12.59
2023-05-02T03:02:39.855Z,12.64
2023-05-02T03:05:10.564Z,12.60
2023-05-02T03:07:38.494Z,12.37
2023-05-02T03:10:08.294Z,12.14
2023-05-02T03:12:36.230Z,11.95
2023-05-02T03:15:18.492Z,11.89
2023-05-02T03:17:47.801Z,11.89
2023-05-02T03:20:16.214Z,11.93
2023-05-02T03:22:44.255Z,11.98
2023-05-02T03:25:12.705Z,11.88
2023-05-02T03:27:40.567Z,11.62
2023-05-02T03:30:10.101Z,11.55
2023-05-02T03:32:38.041Z,11.45
2023-05-02T03:35:08.520Z,11.09
2023-05-02T03:37:36.566Z,11.05
2023-05-02T03:40:04.791Z,11.10
2023-05-02T03:42:33.687Z,11.14
2023-05-02T03:45:01.653Z,11.06
2023-05-02T03:47:29.600Z,10.88
2023-05-02T03:49:59.370Z,10.84
2023-05-02T03:52:29.047Z,10.89
2023-05-02T03:54:56.980Z,10.74
2023-05-02T03:57:25.161Z,10.78
2023-05-02T03:59:53.206Z,10.69
2023-05-02T04:02:21.278Z,10.81
2023-05-02T04:04:49.412Z,10.87
2023-05-02T04:07:19.345Z,10.94
2023-05-02T04:09:48.808Z,10.94
2023-05-02T04:12:17.271Z,11.04
2023-05-02T04:14:45.098Z,11.01
2023-05-02T04:17:13.679Z,10.89
2023-05-02T04:19:41.720Z,10.87
2023-05-02T04:22:09.615Z,10.83
2023-05-02T04:24:37.561Z,11.02
2023-05-02T04:27:07.982Z,11.13
2023-05-02T04:29:36.143Z,11.09
2023-05-02T04:32:04.144Z,11.07
2023-05-02T04:34:32.050Z,11.08
2023-05-02T04:37:00.000Z,10.94
2023-05-02T04:39:27.903Z,10.75
2023-05-02T04:41:56.025Z,10.80
2023-05-02T04:44:25.419Z,10.80
2023-05-02T04:46:53.460Z,10.83
2023-05-02T04:49:21.643Z,10.81
2023-05-02T04:51:49.629Z,10.76
2023-05-02T04:54:17.560Z,10.83
2023-05-02T04:56:46.096Z,10.71
2023-05-02T04:59:13.984Z,10.66
2023-05-02T05:01:43.612Z,10.55
2023-05-02T05:04:12.052Z,10.54
2023-05-02T05:06:40.597Z,10.53
2023-05-02T05:09:08.689Z,10.63
2023-05-02T05:11:36.664Z,10.62
2023-05-02T05:14:05.236Z,10.69
2023-05-02T05:16:33.483Z,10.75
2023-05-02T05:19:02.825Z,10.76
2023-05-02T05:21:31.112Z,10.91
2023-05-02T05:23:58.974Z,10.89
2023-05-02T05:26:27.055Z,10.95
2023-05-02T05:28:54.871Z,10.89
2023-05-02T05:31:24.410Z,10.74
2023-05-02T05:33:52.534Z,10.65
2023-05-02T05:36:23.426Z,10.42
2023-05-02T05:38:52.352Z,10.49
2023-05-02T05:41:20.230Z,10.37
2023-05-02T05:43:48.053Z,10.37
2023-05-02T05:46:16.023Z,10.43
2023-05-02T05:48:43.862Z,10.58
2023-05-02T05:51:11.739Z,10.73
2023-05-02T05:53:41.096Z,10.77
2023-05-02T05:56:12.248Z,10.87
2023-05-02T05:58:40.966Z,10.62
2023-05-02T06:01:09.521Z,10.57
2023-05-02T06:03:37.474Z,10.64
2023-05-02T06:06:06.022Z,10.53
2023-05-02T06:08:33.982Z,10.49
2023-05-02T06:11:03.191Z,10.63
2023-05-02T06:13:31.110Z,10.67
2023-05-02T06:16:02.181Z,10.52
2023-05-02T06:18:30.184Z,10.56
2023-05-02T06:20:58.265Z,10.67
2023-05-02T06:23:26.485Z,10.84
2023-05-02T06:25:54.594Z,10.96
2023-05-02T06:28:23.948Z,10.83
2023-05-02T06:30:58.535Z,10.69
2023-05-02T06:33:26.472Z,10.68
2023-05-02T06:35:54.449Z,10.84
2023-05-02T06:38:22.684Z,10.93
2023-05-02T06:40:51.200Z,11.05
2023-05-02T06:43:20.110Z,10.99
2023-05-02T06:45:49.570Z,10.80
2023-05-02T06:48:17.803Z,10.77
2023-05-02T06:50:45.876Z,10.92
2023-05-02T06:53:14.087Z,10.73
2023-05-02T06:55:42.329Z,10.56
2023-05-02T06:58:10.419Z,10.51
2023-05-02T07:00:38.640Z,10.52
2023-05-02T07:03:08.199Z,10.46
2023-05-02T07:05:36.363Z,10.79
2023-05-02T07:08:04.399Z,10.76
2023-05-02T07:10:32.662Z,10.72
2023-05-02T07:13:00.645Z,10.74
2023-05-02T07:15:29.120Z,11.02
2023-05-02T07:17:57.094Z,10.91
2023-05-02T07:20:26.739Z,11.07
2023-05-02T07:22:55.232Z,11.27
2023-05-02T07:25:23.128Z,11.53
2023-05-02T07:27:51.055Z,11.57
2023-05-02T07:30:18.987Z,11.76
2023-05-02T07:32:46.862Z,11.94
2023-05-02T07:35:14.829Z,11.92
2023-05-02T07:37:44.306Z,11.97
2023-05-02T07:40:12.575Z,11.81
2023-05-02T07:42:41.809Z,11.94
2023-05-02T07:45:10.683Z,12.03
2023-05-02T07:47:38.735Z,12.02
2023-05-02T07:50:07.809Z,12.07
2023-05-02T07:52:35.815Z,12.30
2023-05-02T07:55:05.491Z,12.42
2023-05-02T07:57:33.475Z,12.44
2023-05-02T08:00:01.742Z,12.33
2023-05-02T08:02:30.269Z,12.24
2023-05-02T08:04:58.375Z,12.29
2023-05-02T08:07:26.478Z,12.12
2023-05-02T08:09:54.353Z,12.15
2023-05-02T08:12:23.859Z,12.15
2023-05-02T08:14:51.948Z,12.17
2023-05-02T08:17:19.778Z,12.28
2023-05-02T08:19:47.686Z,12.42
2023-05-02T08:22:15.720Z,12.58
2023-05-02T08:24:43.592Z,12.79
2023-05-02T08:27:11.484Z,13.14
2023-05-02T08:29:41.130Z,13.12
2023-05-02T08:32:09.252Z,13.18
2023-05-02T08:34:37.133Z,13.30
2023-05-02T08:37:09.734Z,13.38
2023-05-02T08:39:37.730Z,13.24
2023-05-02T08:42:07.991Z,13.49
2023-05-02T08:44:36.559Z,13.67
2023-05-02T08:47:06.750Z,13.42
2023-05-02T08:49:37.409Z,13.41
2023-05-02T08:52:06.865Z,13.43
2023-05-02T08:54:35.499Z,13.68
2023-05-02T08:57:05.305Z,13.53
2023-05-02T08:59:33.352Z,13.49
2023-05-02T09:02:13.784Z,13.52
2023-05-02T09:04:44.265Z,13.66
2023-05-02T09:07:12.258Z,13.84
2023-05-02T09:09:40.382Z,13.94
2023-05-02T09:12:08.327Z,14.03
2023-05-02T09:14:36.901Z,13.85
2023-05-02T09:17:04.957Z,14.03
2023-05-02T09:19:34.626Z,14.12
2023-05-02T09:22:03.061Z,14.78
2023-05-02T09:24:30.977Z,15.07
2023-05-02T09:27:00.485Z,16.21
2023-05-02T09:29:30.834Z,16.19
2023-05-02T09:31:58.824Z,16.29
2023-05-02T09:34:26.782Z,16.05
2023-05-02T09:36:56.250Z,16.04
2023-05-02T09:39:26.388Z,16.19
2023-05-02T09:41:55.118Z,17.14
2023-05-02T09:44:24.653Z,16.88
2023-05-02T09:46:54.389Z,16.76
2023-05-02T09:49:41.146Z,16.43
2023-05-02T09:52:14.190Z,15.98
2023-05-02T09:54:42.364Z,15.97
2023-05-02T09:57:11.068Z,17.39
2023-05-02T09:59:40.819Z,17.83
2023-05-02T10:02:11.494Z,17.28
2023-05-02T10:04:40.609Z,16.81
2023-05-02T10:07:10.600Z,16.30
2023-05-02T10:09:44.431Z,16.03
2023-05-02T10:12:16.905Z,15.46
2023-05-02T10:14:51.726Z,15.39
2023-05-02T10:17:26.713Z,15.08
2023-05-02T10:19:58.824Z,14.63
2023-05-02T10:22:27.761Z,14.71
2023-05-02T10:25:00.942Z,14.42
2023-05-02T10:27:30.744Z,14.01
2023-05-02T10:29:59.933Z,14.02
2023-05-02T10:32:29.998Z,14.07
2023-05-02T10:34:59.283Z,14.29
2023-05-02T10:37:28.876Z,14.61
2023-05-02T10:39:58.959Z,14.90
2023-05-02T10:42:28.236Z,15.56
2023-05-02T10:44:56.260Z,15.90
2023-05-02T10:47:27.195Z,16.54
2023-05-02T10:49:58.054Z,16.24
2023-05-02T10:52:31.933Z,16.27
2023-05-02T10:55:20.833Z,16.62
2023-05-02T10:58:22.543Z,17.06
2023-05-02T11:00:50.511Z,17.04
2023-05-02T11:03:51.679Z,16.85
2023-05-02T11:06:19.741Z,16.29
2023-05-02T11:08:47.592Z,15.70
2023-05-02T11:11:48.347Z,15.58
2023-05-02T11:14:49.943Z,15.63
2023-05-02T11:17:19.110Z,15.53
2023-05-02T11:20:29.618Z,15.30
2023-05-02T11:23:22.836Z,15.06
2023-05-02T11:25:51.768Z,15.19
2023-05-02T11:28:51.039Z,14.97
2023-05-02T11:31:54.534Z,14.93
2023-05-02T11:34:22.860Z,15.10
2023-05-02T11:36:51.134Z,15.26
2023-05-02T11:39:23.246Z,15.43
2023-05-02T11:41:51.894Z,15.36
2023-05-02T11:44:21.194Z,15.30
2023-05-02T11:46:50.108Z,15.14
2023-05-02T11:49:18.124Z,14.77
2023-05-02T11:51:46.192Z,14.78
2023-05-02T11:54:20.349Z,14.88
2023-05-02T11:56:48.636Z,14.98
2023-05-02T11:59:16.596Z,14.80
2023-05-02T12:01:50.500Z,14.82
2023-05-02T12:04:22.009Z,15.20
2023-05-02T12:06:56.784Z,15.44
2023-05-02T12:09:24.740Z,15.59
2023-05-02T12:11:55.554Z,15.65
2023-05-02T12:14:29.982Z,15.88
2023-05-02T12:17:00.012Z,16.00
2023-05-02T12:19:28.588Z,15.95
2023-05-02T12:21:56.685Z,15.68
2023-05-02T12:24:24.851Z,15.40
2023-05-02T12:27:11.032Z,14.96
2023-05-02T12:29:40.334Z,14.87
2023-05-02T12:32:09.560Z,14.80
2023-05-02T12:34:38.099Z,14.94
2023-05-02T12:37:06.730Z,15.14
2023-05-02T12:39:39.106Z,15.01
2023-05-02T12:42:11.830Z,15.07
2023-05-02T12:44:40.858Z,15.26
2023-05-02T12:47:11.677Z,14.90
2023-05-02T12:49:56.017Z,14.62
2023-05-02T12:52:50.762Z,14.48
2023-05-02T12:55:19.063Z,14.49
2023-05-02T13:02:32.265Z,14.88
2023-05-02T13:05:01.747Z,14.65
2023-05-02T13:07:30.087Z,14.22
2023-05-02T13:09:57.997Z,14.27
2023-05-02T13:12:26.477Z,14.39
2023-05-02T13:14:54.710Z,14.33
2023-05-02T13:17:22.786Z,14.33
2023-05-02T13:20:00.935Z,14.36
2023-05-02T13:22:31.406Z,14.57
2023-05-02T13:24:59.587Z,14.64
2023-05-02T13:27:28.151Z,14.88
2023-05-02T13:29:56.130Z,15.04
2023-05-02T13:32:24.005Z,14.92
2023-05-02T13:34:51.925Z,14.83
2023-05-02T13:37:19.889Z,14.89
2023-05-02T13:39:49.678Z,15.00
2023-05-02T13:42:17.644Z,14.99
2023-05-02T13:44:45.626Z,14.96
2023-05-02T13:47:13.950Z,15.12
2023-05-02T13:49:41.871Z,15.07
2023-05-02T13:52:09.894Z,15.14
2023-05-02T13:54:37.869Z,14.76
2023-05-02T13:57:07.347Z,14.71
2023-05-02T13:59:35.368Z,14.70
2023-05-02T14:02:03.413Z,14.65
2023-05-02T14:04:31.368Z,14.33
2023-05-02T14:06:59.412Z,13.96
2023-05-02T14:09:27.297Z,13.76
2023-05-02T14:11:55.556Z,13.82
2023-05-02T14:14:24.864Z,13.74
2023-05-02T14:16:52.780Z,13.73
2023-05-02T14:19:20.679Z,14.00
2023-05-02T14:21:49.161Z,14.04
2023-05-02T14:24:18.407Z,14.07
2023-05-02T14:26:46.572Z,14.14
2023-05-02T14:29:14.690Z,14.33
2023-05-02T14:31:46.066Z,14.34
2023-05-02T14:34:14.280Z,14.37
2023-05-02T14:36:45.116Z,14.39
2023-05-02T14:39:13.098Z,14.10
2023-05-02T14:41:41.103Z,13.96
2023-05-02T14:44:08.944Z,13.93
2023-05-02T14:46:36.959Z,14.05
2023-05-02T14:49:06.280Z,14.07
2023-05-02T14:51:34.117Z,14.13
2023-05-02T14:54:02.318Z,13.99
2023-05-02T14:56:30.222Z,13.94
2023-05-02T14:58:58.132Z,13.93
2023-05-02T15:01:26.437Z,14.22
2023-05-02T15:06:30.240Z,14.13
2023-05-02T15:08:58.508Z,14.19
2023-05-02T15:11:26.376Z,14.11
2023-05-02T15:13:55.299Z,14.02
2023-05-02T15:16:24.504Z,14.19
2023-05-02T15:18:52.384Z,14.48
2023-05-02T15:21:20.232Z,14.37
2023-05-02T15:23:49.551Z,14.32
2023-05-02T15:26:17.599Z,14.40
2023-05-02T15:28:45.730Z,14.52
2023-05-02T15:31:14.069Z,14.30
2023-05-02T15:33:41.953Z,14.34
2023-05-02T15:36:10.214Z,14.40
2023-05-02T15:38:39.690Z,14.21
2023-05-02T15:41:09.744Z,14.04
2023-05-02T15:43:38.404Z,14.30
2023-05-02T15:46:06.636Z,14.46
2023-05-02T15:48:34.928Z,14.42
2023-05-02T15:51:03.239Z,14.22
2023-05-02T15:53:31.232Z,14.12
2023-05-02T15:56:00.938Z,14.00
2023-05-02T15:58:30.228Z,13.87
2023-05-02T16:00:58.162Z,14.00
2023-05-02T16:03:26.307Z,14.19
2023-05-02T16:05:54.823Z,14.39
2023-05-02T16:08:22.835Z,14.16
2023-05-02T16:10:50.808Z,13.91
2023-05-02T16:13:18.944Z,13.96
2023-05-02T16:15:49.002Z,14.20
2023-05-02T16:18:16.910Z,14.08
2023-05-02T16:20:47.759Z,13.90
2023-05-02T16:23:15.877Z,13.71
2023-05-02T16:25:44.303Z,13.57
2023-05-02T16:28:12.347Z,13.46
2023-05-02T16:30:40.605Z,13.33
2023-05-02T16:33:09.895Z,13.12
2023-05-02T16:35:37.806Z,12.94
2023-05-02T16:38:06.085Z,12.93
2023-05-02T16:40:33.945Z,12.88
2023-05-02T16:43:01.843Z,12.81
2023-05-02T16:45:29.882Z,12.89
2023-05-02T16:47:57.873Z,12.78
2023-05-02T16:50:27.278Z,12.87
2023-05-02T16:52:55.181Z,12.88
2023-05-02T16:55:23.273Z,12.68
2023-05-02T16:57:51.141Z,12.62
2023-05-02T17:00:19.780Z,12.42
2023-05-02T17:02:47.825Z,12.51
2023-05-02T17:05:16.685Z,12.55
2023-05-02T17:07:46.349Z,12.35
2023-05-02T17:10:14.431Z,12.42
2023-05-02T17:12:43.136Z,12.42
2023-05-02T17:15:11.758Z,12.41
2023-05-02T17:17:39.650Z,12.54
2023-05-02T17:20:08.264Z,12.53
2023-05-02T17:22:38.182Z,12.47
2023-05-02T17:25:08.213Z,12.61
2023-05-02T17:27:37.750Z,12.53
2023-05-02T17:30:09.502Z,12.38
2023-05-02T17:32:37.944Z,12.51
2023-05-02T17:35:06.670Z,12.55
2023-05-02T17:37:35.280Z,12.44
2023-05-02T17:40:04.980Z,12.34
2023-05-02T17:42:34.453Z,12.36
2023-05-02T17:45:02.632Z,12.26
2023-05-02T17:47:30.566Z,12.19
2023-05-02T17:49:58.477Z,12.40
2023-05-02T17:52:26.900Z,12.37
2023-05-02T17:54:54.756Z,12.36
2023-05-02T17:57:22.695Z,12.30
2023-05-02T17:59:56.622Z,12.24
2023-05-02T18:02:24.716Z,12.20
2023-05-02T18:04:52.698Z,12.10
2023-05-02T18:07:24.027Z,12.12
2023-05-02T18:09:52.467Z,12.05
2023-05-02T18:12:20.498Z,12.09
2023-05-02T18:14:49.249Z,12.10
2023-05-02T18:17:20.431Z,11.96
2023-05-02T18:19:50.344Z,11.97
2023-05-02T18:22:21.306Z,12.00
2023-05-02T18:24:49.834Z,12.05
2023-05-02T18:27:17.940Z,12.08
2023-05-02T18:29:45.878Z,12.05
2023-05-02T18:32:14.616Z,12.08
2023-05-02T18:34:44.342Z,12.02
2023-05-02T18:37:12.439Z,11.86
2023-05-02T18:39:40.289Z,11.83
2023-05-02T18:42:08.365Z,11.78
2023-05-02T18:44:36.278Z,11.87
2023-05-02T18:47:04.252Z,11.90
2023-05-02T18:49:32.223Z,11.88
2023-05-02T18:52:01.569Z,11.67
2023-05-02T18:54:29.504Z,11.60
2023-05-02T18:56:57.434Z,11.60
2023-05-02T18:59:25.372Z,11.72
2023-05-02T19:01:53.993Z,11.79
2023-05-02T19:04:22.055Z,11.87
2023-05-02T19:06:50.029Z,11.79
2023-05-02T19:09:19.820Z,11.70
2023-05-02T19:11:47.726Z,11.54
2023-05-02T19:14:15.644Z,11.53
2023-05-02T19:16:44.871Z,11.60
2023-05-02T19:19:15.750Z,11.67
2023-05-02T19:21:45.915Z,11.72
2023-05-02T19:24:13.808Z,11.70
2023-05-02T19:26:45.428Z,11.83
2023-05-02T19:29:13.420Z,11.91
2023-05-02T19:31:43.154Z,11.82
2023-05-02T19:34:11.096Z,11.67
2023-05-02T19:36:39.134Z,11.79
2023-05-02T19:39:06.977Z,11.83
2023-05-02T19:41:35.200Z,11.83
2023-05-02T19:44:04.598Z,11.82
2023-05-02T19:46:32.681Z,11.68
2023-05-02T19:49:00.584Z,11.52
2023-05-02T19:51:29.650Z,11.51
2023-05-02T19:53:58.722Z,11.50
2023-05-02T19:56:28.685Z,11.34
2023-05-02T19:58:58.725Z,11.39
2023-05-02T20:01:29.207Z,11.47
2023-05-02T20:03:57.142Z,11.43
2023-05-02T20:06:25.617Z,11.37
2023-05-02T20:08:53.560Z,11.22
2023-05-02T20:11:21.461Z,11.15
2023-05-02T20:13:49.410Z,11.09
2023-05-02T20:16:17.319Z,10.98
2023-05-02T20:18:47.013Z,10.90
2023-05-02T20:21:15.053Z,10.96
2023-05-02T20:23:44.373Z,10.77
2023-05-02T20:26:14.231Z,10.79
2023-05-02T20:28:43.224Z,10.76
2023-05-02T20:31:11.183Z,10.70
2023-05-02T20:33:45.507Z,10.62
2023-05-02T20:36:15.859Z,10.62
2023-05-02T20:38:44.965Z,10.56
2023-05-02T20:41:14.177Z,10.43
2023-05-02T20:43:45.284Z,10.46
2023-05-02T20:46:16.270Z,10.32
2023-05-02T20:48:44.541Z,10.30
2023-05-02T20:51:12.520Z,10.27
2023-05-02T20:53:42.153Z,10.13
2023-05-02T20:56:10.257Z,10.14
2023-05-02T20:58:38.296Z,10.17
2023-05-02T21:01:06.525Z,10.08
2023-05-02T21:03:39.357Z,9.92
2023-05-02T21:06:07.567Z,9.88
2023-05-02T21:08:35.626Z,9.99
2023-05-02T21:11:13.600Z,10.03
2023-05-02T21:13:42.237Z,10.07
2023-05-02T21:16:18.161Z,10.10
2023-05-02T21:18:46.871Z,10.07
2023-05-02T21:21:15.521Z,9.98
2023-05-02T21:23:43.529Z,9.96
2023-05-02T21:26:13.278Z,9.92
2023-05-02T21:28:41.299Z,9.84
2023-05-02T21:31:12.452Z,9.79
2023-05-02T21:33:41.517Z,9.74
2023-05-02T21:36:10.064Z,9.73
2023-05-02T21:38:38.050Z,9.76
2023-05-02T21:41:06.657Z,9.71
2023-05-02T21:43:40.226Z,9.76
2023-05-02T21:46:08.344Z,9.70
2023-05-02T21:48:36.392Z,9.70
2023-05-02T21:51:08.327Z,9.59
2023-05-02T21:53:36.152Z,9.63
2023-05-02T21:56:04.149Z,9.60
2023-05-02T21:58:32.010Z,9.54
2023-05-02T22:01:01.598Z,9.49
2023-05-02T22:03:31.040Z,9.58
2023-05-02T22:06:04.858Z,9.50
2023-05-02T22:08:33.333Z,9.56
2023-05-02T22:11:01.674Z,9.55
2023-05-02T22:13:29.764Z,9.60
2023-05-02T22:15:57.705Z,9.57
2023-05-02T22:18:27.061Z,9.53
2023-05-02T22:20:57.257Z,9.48
2023-05-02T22:23:25.467Z,9.50
2023-05-02T22:25:53.411Z,9.44
2023-05-02T22:28:21.308Z,9.44
2023-05-02T22:30:49.466Z,9.44
2023-05-02T22:33:17.424Z,9.29
2023-05-02T22:35:46.757Z,9.35
2023-05-02T22:38:17.138Z,9.32
2023-05-02T22:40:45.081Z,9.28
2023-05-02T22:43:12.960Z,9.27
2023-05-02T22:45:41.016Z,9.26
2023-05-02T22:48:09.178Z,9.34
2023-05-02T22:50:37.529Z,9.35
2023-05-02T22:53:09.683Z,9.28
2023-05-02T22:55:38.450Z,9.24
2023-05-02T22:58:06.317Z,9.17
2023-05-02T23:00:34.829Z,9.17
2023-05-02T23:03:02.796Z,9.20
2023-05-02T23:05:30.796Z,9.18
2023-05-02T23:07:58.963Z,9.17
2023-05-02T23:10:28.289Z,9.14
2023-05-02T23:12:56.258Z,9.11
2023-05-02T23:15:24.325Z,9.06
2023-05-02T23:17:52.235Z,9.09
2023-05-02T23:20:22.764Z,9.06
2023-05-02T23:22:51.253Z,9.05
2023-05-02T23:25:19.940Z,8.94
2023-05-02T23:27:49.137Z,8.98
2023-05-02T23:30:17.084Z,8.93
2023-05-02T23:32:45.129Z,8.91
2023-05-02T23:35:13.254Z,8.87
2023-05-02T23:37:42.243Z,8.86
2023-05-02T23:40:10.816Z,8.85
2023-05-02T23:42:40.215Z,8.89
2023-05-02T23:45:10.981Z,8.85
2023-05-02T23:47:39.348Z,8.81
2023-05-02T23:50:08.621Z,8.87
2023-05-02T23:52:36.905Z,8.80
2023-05-02T23:55:12.912Z,8.84
2023-05-02T23:57:40.915Z,8.88
